sensor_id;sensor_type;location;lat;lon;timestamp;pressure;altitude;pressure_sealevel;temperature;humidity
55373;BME280;70018;47.838;16.490;2024-02-15T00:01:52;99967.72;;;8.56;60.59
55373;BME280;70018;47.838;16.490;2024-02-15T00:04:19;99976.28;;;8.34;61.69
55373;BME280;70018;47.838;16.490;2024-02-15T00:06:47;99977.03;;;8.14;61.37
55373;BME280;70018;47.838;16.490;2024-02-15T00:09:14;99984.34;;;8.01;61.63
55373;BME280;70018;47.838;16.490;2024-02-15T00:11:41;99981.66;;;7.93;63.33
55373;BME280;70018;47.838;16.490;2024-02-15T00:14:07;99982.50;;;7.85;63.06
55373;BME280;70018;47.838;16.490;2024-02-15T00:16:35;99984.28;;;7.80;63.02
55373;BME280;70018;47.838;16.490;2024-02-15T00:19:05;99982.09;;;7.65;61.85
55373;BME280;70018;47.838;16.490;2024-02-15T00:21:33;99983.13;;;7.52;62.92
55373;BME280;70018;47.838;16.490;2024-02-15T00:24:01;99975.03;;;7.56;63.01
55373;BME280;70018;47.838;16.490;2024-02-15T00:26:28;99987.47;;;7.53;62.22
55373;BME280;70018;47.838;16.490;2024-02-15T00:28:55;99978.28;;;7.49;62.84
55373;BME280;70018;47.838;16.490;2024-02-15T00:31:21;99981.22;;;7.44;63.91
55373;BME280;70018;47.838;16.490;2024-02-15T00:33:49;99981.72;;;7.38;66.12
55373;BME280;70018;47.838;16.490;2024-02-15T00:36:16;99971.41;;;7.35;64.47
55373;BME280;70018;47.838;16.490;2024-02-15T00:38:44;99981.25;;;7.27;63.86
55373;BME280;70018;47.838;16.490;2024-02-15T00:41:11;99972.25;;;7.18;64.00
55373;BME280;70018;47.838;16.490;2024-02-15T00:43:39;99977.72;;;7.18;63.53
55373;BME280;70018;47.838;16.490;2024-02-15T00:46:06;99978.69;;;7.22;63.37
55373;BME280;70018;47.838;16.490;2024-02-15T00:48:32;99979.34;;;7.19;63.94
55373;BME280;70018;47.838;16.490;2024-02-15T00:50:59;99973.25;;;7.05;63.99
55373;BME280;70018;47.838;16.490;2024-02-15T00:53:26;99978.59;;;6.93;64.63
55373;BME280;70018;47.838;16.490;2024-02-15T00:55:53;99982.94;;;6.77;64.86
55373;BME280;70018;47.838;16.490;2024-02-15T00:58:20;99978.41;;;6.64;65.35
55373;BME280;70018;47.838;16.490;2024-02-15T01:00:48;99984.06;;;6.59;66.70
55373;BME280;70018;47.838;16.490;2024-02-15T01:03:16;99979.25;;;6.56;67.05
55373;BME280;70018;47.838;16.490;2024-02-15T01:05:43;99993.88;;;6.42;67.35
55373;BME280;70018;47.838;16.490;2024-02-15T01:08:09;99986.94;;;6.28;67.15
55373;BME280;70018;47.838;16.490;2024-02-15T01:10:37;99984.66;;;6.13;66.70
55373;BME280;70018;47.838;16.490;2024-02-15T01:13:04;99974.84;;;6.20;65.81
55373;BME280;70018;47.838;16.490;2024-02-15T01:20:48;99984.22;;;6.54;64.98
55373;BME280;70018;47.838;16.490;2024-02-15T01:34:59;99963.06;;;7.98;64.32
55373;BME280;70018;47.838;16.490;2024-02-15T01:40:07;99958.09;;;8.29;63.41
55373;BME280;70018;47.838;16.490;2024-02-15T01:42:34;99965.56;;;8.41;63.13
55373;BME280;70018;47.838;16.490;2024-02-15T01:45:02;99963.56;;;8.50;62.61
55373;BME280;70018;47.838;16.490;2024-02-15T01:47:28;99968.94;;;8.67;62.73
55373;BME280;70018;47.838;16.490;2024-02-15T01:49:56;99968.53;;;8.77;61.87
55373;BME280;70018;47.838;16.490;2024-02-15T01:52:24;99956.84;;;8.80;61.14
55373;BME280;70018;47.838;16.490;2024-02-15T01:54:52;99976.28;;;8.75;61.27
55373;BME280;70018;47.838;16.490;2024-02-15T01:57:20;99963.72;;;8.74;61.04
55373;BME280;70018;47.838;16.490;2024-02-15T01:59:50;99964.84;;;8.73;61.43
55373;BME280;70018;47.838;16.490;2024-02-15T02:02:18;99964.38;;;8.71;62.03
55373;BME280;70018;47.838;16.490;2024-02-15T02:04:48;99959.34;;;8.73;61.79
55373;BME280;70018;47.838;16.490;2024-02-15T02:07:15;99957.06;;;8.75;61.66
55373;BME280;70018;47.838;16.490;2024-02-15T02:09:41;99951.25;;;8.77;61.42
55373;BME280;70018;47.838;16.490;2024-02-15T02:12:09;99962.56;;;8.75;61.59
55373;BME280;70018;47.838;16.490;2024-02-15T02:14:36;99960.50;;;8.72;62.22
55373;BME280;70018;47.838;16.490;2024-02-15T02:17:13;99950.91;;;8.78;62.16
55373;BME280;70018;47.838;16.490;2024-02-15T02:19:41;99964.56;;;8.87;61.46
55373;BME280;70018;47.838;16.490;2024-02-15T02:22:09;99956.13;;;8.92;61.38
55373;BME280;70018;47.838;16.490;2024-02-15T02:24:44;99957.50;;;8.98;61.58
55373;BME280;70018;47.838;16.490;2024-02-15T02:27:13;99956.97;;;9.04;61.34
55373;BME280;70018;47.838;16.490;2024-02-15T02:29:43;99950.78;;;9.07;61.04
55373;BME280;70018;47.838;16.490;2024-02-15T02:32:12;99954.78;;;9.10;61.50
55373;BME280;70018;47.838;16.490;2024-02-15T02:34:39;99957.47;;;9.19;61.09
55373;BME280;70018;47.838;16.490;2024-02-15T02:37:08;99956.13;;;9.25;60.68
55373;BME280;70018;47.838;16.490;2024-02-15T02:39:35;99952.22;;;9.26;60.83
55373;BME280;70018;47.838;16.490;2024-02-15T02:42:02;99948.56;;;9.34;60.85
55373;BME280;70018;47.838;16.490;2024-02-15T02:44:29;99956.84;;;9.46;60.29
55373;BME280;70018;47.838;16.490;2024-02-15T02:46:56;99951.56;;;9.53;60.66
55373;BME280;70018;47.838;16.490;2024-02-15T02:49:23;99948.16;;;9.56;60.19
55373;BME280;70018;47.838;16.490;2024-02-15T02:51:50;99944.72;;;9.59;60.48
55373;BME280;70018;47.838;16.490;2024-02-15T02:54:16;99944.50;;;9.64;60.52
55373;BME280;70018;47.838;16.490;2024-02-15T02:56:44;99945.75;;;9.66;60.15
55373;BME280;70018;47.838;16.490;2024-02-15T02:59:11;99942.66;;;9.68;60.48
55373;BME280;70018;47.838;16.490;2024-02-15T03:01:39;99933.72;;;9.71;60.33
55373;BME280;70018;47.838;16.490;2024-02-15T03:04:07;99949.88;;;9.72;60.39
55373;BME280;70018;47.838;16.490;2024-02-15T03:06:34;99940.50;;;9.73;60.34
55373;BME280;70018;47.838;16.490;2024-02-15T03:09:01;99945.31;;;9.77;60.22
55373;BME280;70018;47.838;16.490;2024-02-15T03:11:28;99946.56;;;9.67;61.05
55373;BME280;70018;47.838;16.490;2024-02-15T03:13:54;99943.38;;;9.20;61.72
55373;BME280;70018;47.838;16.490;2024-02-15T03:16:22;99949.22;;;8.65;62.30
55373;BME280;70018;47.838;16.490;2024-02-15T03:18:49;99954.19;;;8.30;63.70
55373;BME280;70018;47.838;16.490;2024-02-15T03:21:15;99951.06;;;8.11;65.09
55373;BME280;70018;47.838;16.490;2024-02-15T03:23:42;99948.06;;;7.96;65.02
55373;BME280;70018;47.838;16.490;2024-02-15T03:26:09;99945.25;;;7.84;65.69
55373;BME280;70018;47.838;16.490;2024-02-15T03:28:36;99941.69;;;7.83;64.72
55373;BME280;70018;47.838;16.490;2024-02-15T03:31:04;99943.66;;;7.83;65.03
55373;BME280;70018;47.838;16.490;2024-02-15T03:33:31;99960.94;;;7.74;65.40
55373;BME280;70018;47.838;16.490;2024-02-15T03:36:01;99954.38;;;7.58;65.32
55373;BME280;70018;47.838;16.490;2024-02-15T03:38:28;99956.53;;;7.44;66.70
55373;BME280;70018;47.838;16.490;2024-02-15T03:40:56;99948.69;;;7.34;67.84
55373;BME280;70018;47.838;16.490;2024-02-15T03:43:22;99956.56;;;7.36;68.01
55373;BME280;70018;47.838;16.490;2024-02-15T03:45:50;99958.47;;;7.44;67.18
55373;BME280;70018;47.838;16.490;2024-02-15T03:48:17;99947.34;;;7.49;66.61
55373;BME280;70018;47.838;16.490;2024-02-15T03:50:44;99962.16;;;7.56;67.08
55373;BME280;70018;47.838;16.490;2024-02-15T03:53:11;99953.41;;;7.63;66.54
55373;BME280;70018;47.838;16.490;2024-02-15T03:55:39;99951.00;;;7.61;66.32
55373;BME280;70018;47.838;16.490;2024-02-15T03:58:06;99954.84;;;7.60;66.46
55373;BME280;70018;47.838;16.490;2024-02-15T04:00:34;99947.22;;;7.45;67.46
55373;BME280;70018;47.838;16.490;2024-02-15T04:03:01;99953.28;;;7.51;67.43
55373;BME280;70018;47.838;16.490;2024-02-15T04:05:27;99947.63;;;7.94;70.55
55373;BME280;70018;47.838;16.490;2024-02-15T04:07:55;99951.38;;;8.39;71.61
55373;BME280;70018;47.838;16.490;2024-02-15T04:10:22;99957.66;;;8.60;68.75
55373;BME280;70018;47.838;16.490;2024-02-15T04:12:49;99937.59;;;8.68;67.66
55373;BME280;70018;47.838;16.490;2024-02-15T04:15:16;99930.00;;;8.65;70.71
55373;BME280;70018;47.838;16.490;2024-02-15T04:17:45;99938.44;;;8.60;76.58
55373;BME280;70018;47.838;16.490;2024-02-15T04:20:12;99935.34;;;8.50;76.47
55373;BME280;70018;47.838;16.490;2024-02-15T04:22:41;99937.13;;;8.46;75.79
55373;BME280;70018;47.838;16.490;2024-02-15T04:25:10;99937.59;;;8.27;73.16
55373;BME280;70018;47.838;16.490;2024-02-15T04:27:38;99937.19;;;7.87;73.00
55373;BME280;70018;47.838;16.490;2024-02-15T04:30:06;99941.84;;;7.57;73.56
55373;BME280;70018;47.838;16.490;2024-02-15T04:32:35;99939.22;;;7.61;75.49
55373;BME280;70018;47.838;16.490;2024-02-15T04:35:03;99935.47;;;7.74;74.55
55373;BME280;70018;47.838;16.490;2024-02-15T04:37:34;99930.97;;;7.69;73.49
55373;BME280;70018;47.838;16.490;2024-02-15T04:40:01;99929.06;;;7.61;73.52
55373;BME280;70018;47.838;16.490;2024-02-15T04:42:35;99930.72;;;7.54;73.43
55373;BME280;70018;47.838;16.490;2024-02-15T04:45:06;99933.50;;;7.45;74.06
55373;BME280;70018;47.838;16.490;2024-02-15T04:47:38;99934.81;;;7.39;74.59
55373;BME280;70018;47.838;16.490;2024-02-15T04:50:06;99935.72;;;7.52;73.77
55373;BME280;70018;47.838;16.490;2024-02-15T04:52:33;99936.25;;;7.45;73.19
55373;BME280;70018;47.838;16.490;2024-02-15T04:55:02;99929.97;;;7.36;73.07
55373;BME280;70018;47.838;16.490;2024-02-15T04:57:31;99936.78;;;7.30;74.16
55373;BME280;70018;47.838;16.490;2024-02-15T05:00:00;99939.03;;;7.28;74.29
55373;BME280;70018;47.838;16.490;2024-02-15T05:02:27;99935.16;;;7.29;74.90
55373;BME280;70018;47.838;16.490;2024-02-15T05:04:54;99932.91;;;7.31;74.87
55373;BME280;70018;47.838;16.490;2024-02-15T05:07:23;99933.38;;;7.33;75.37
55373;BME280;70018;47.838;16.490;2024-02-15T05:09:49;99935.63;;;7.31;74.34
55373;BME280;70018;47.838;16.490;2024-02-15T05:12:23;99940.81;;;7.33;74.55
55373;BME280;70018;47.838;16.490;2024-02-15T05:14:53;99940.47;;;7.34;73.89
55373;BME280;70018;47.838;16.490;2024-02-15T05:17:20;99941.59;;;7.33;73.50
55373;BME280;70018;47.838;16.490;2024-02-15T05:30:36;99933.19;;;7.38;74.60
55373;BME280;70018;47.838;16.490;2024-02-15T05:35:41;99944.94;;;7.47;76.31
55373;BME280;70018;47.838;16.490;2024-02-15T05:38:09;99951.81;;;7.62;80.10
55373;BME280;70018;47.838;16.490;2024-02-15T05:40:37;99950.44;;;7.76;80.30
55373;BME280;70018;47.838;16.490;2024-02-15T05:43:04;99947.81;;;7.89;79.97
55373;BME280;70018;47.838;16.490;2024-02-15T05:45:32;99954.38;;;7.96;80.77
55373;BME280;70018;47.838;16.490;2024-02-15T05:48:02;99949.16;;;8.03;80.62
55373;BME280;70018;47.838;16.490;2024-02-15T05:50:30;99958.28;;;8.16;79.46
55373;BME280;70018;47.838;16.490;2024-02-15T06:17:16;99986.09;;;7.68;76.50
55373;BME280;70018;47.838;16.490;2024-02-15T06:25:13;99974.84;;;7.61;78.12
55373;BME280;70018;47.838;16.490;2024-02-15T06:27:42;99978.97;;;7.75;79.95
55373;BME280;70018;47.838;16.490;2024-02-15T06:57:29;100013.44;;;7.94;77.72
55373;BME280;70018;47.838;16.490;2024-02-15T06:59:57;100012.31;;;7.95;76.83
55373;BME280;70018;47.838;16.490;2024-02-15T07:02:23;100011.22;;;7.78;77.32
55373;BME280;70018;47.838;16.490;2024-02-15T07:04:50;100008.50;;;7.78;78.75
55373;BME280;70018;47.838;16.490;2024-02-15T07:07:18;100006.56;;;7.79;78.90
55373;BME280;70018;47.838;16.490;2024-02-15T07:09:45;99998.81;;;7.81;78.86
55373;BME280;70018;47.838;16.490;2024-02-15T07:12:11;100014.59;;;7.93;78.29
55373;BME280;70018;47.838;16.490;2024-02-15T07:14:38;100007.72;;;8.07;80.03
55373;BME280;70018;47.838;16.490;2024-02-15T07:17:06;100009.88;;;8.31;81.32
55373;BME280;70018;47.838;16.490;2024-02-15T07:19:33;100013.47;;;8.52;79.58
55373;BME280;70018;47.838;16.490;2024-02-15T07:22:03;100012.69;;;8.72;78.67
55373;BME280;70018;47.838;16.490;2024-02-15T07:24:29;100022.25;;;8.87;77.60
55373;BME280;70018;47.838;16.490;2024-02-15T07:26:56;100029.19;;;9.05;76.40
55373;BME280;70018;47.838;16.490;2024-02-15T07:29:23;100026.63;;;9.00;76.28
55373;BME280;70018;47.838;16.490;2024-02-15T07:31:50;100034.50;;;8.89;76.59
55373;BME280;70018;47.838;16.490;2024-02-15T07:34:17;100024.72;;;8.80;76.47
55373;BME280;70018;47.838;16.490;2024-02-15T07:36:44;100031.31;;;8.58;76.85
55373;BME280;70018;47.838;16.490;2024-02-15T07:39:12;100026.88;;;8.45;77.15
55373;BME280;70018;47.838;16.490;2024-02-15T07:41:41;100022.34;;;8.49;76.68
55373;BME280;70018;47.838;16.490;2024-02-15T07:44:07;100016.28;;;8.64;75.59
55373;BME280;70018;47.838;16.490;2024-02-15T07:46:34;100010.59;;;8.69;76.20
55373;BME280;70018;47.838;16.490;2024-02-15T07:49:01;100017.00;;;8.73;75.33
55373;BME280;70018;47.838;16.490;2024-02-15T07:51:28;100014.25;;;8.73;75.72
55373;BME280;70018;47.838;16.490;2024-02-15T07:53:55;100017.47;;;8.75;74.99
55373;BME280;70018;47.838;16.490;2024-02-15T07:56:22;100011.00;;;8.80;75.02
55373;BME280;70018;47.838;16.490;2024-02-15T07:58:49;100011.13;;;8.83;75.22
55373;BME280;70018;47.838;16.490;2024-02-15T08:01:20;100007.97;;;8.93;74.45
55373;BME280;70018;47.838;16.490;2024-02-15T08:03:52;100017.41;;;9.04;73.99
55373;BME280;70018;47.838;16.490;2024-02-15T08:06:22;100010.38;;;9.28;73.73
55373;BME280;70018;47.838;16.490;2024-02-15T08:08:52;100018.31;;;9.29;73.51
55373;BME280;70018;47.838;16.490;2024-02-15T08:11:20;100007.00;;;9.43;74.00
55373;BME280;70018;47.838;16.490;2024-02-15T08:13:47;100010.09;;;9.41;73.29
55373;BME280;70018;47.838;16.490;2024-02-15T08:16:17;100013.13;;;9.60;73.20
55373;BME280;70018;47.838;16.490;2024-02-15T08:18:44;100015.66;;;9.65;73.47
55373;BME280;70018;47.838;16.490;2024-02-15T08:21:13;100010.28;;;9.69;73.28
55373;BME280;70018;47.838;16.490;2024-02-15T08:23:40;100010.59;;;9.67;73.24
55373;BME280;70018;47.838;16.490;2024-02-15T08:26:07;100015.06;;;9.60;72.89
55373;BME280;70018;47.838;16.490;2024-02-15T08:28:37;100009.34;;;9.65;73.36
55373;BME280;70018;47.838;16.490;2024-02-15T08:31:05;100000.88;;;9.70;73.27
55373;BME280;70018;47.838;16.490;2024-02-15T08:33:31;99998.59;;;9.72;73.52
55373;BME280;70018;47.838;16.490;2024-02-15T08:35:58;99987.59;;;9.72;73.40
55373;BME280;70018;47.838;16.490;2024-02-15T08:38:28;99987.03;;;9.79;73.62
55373;BME280;70018;47.838;16.490;2024-02-15T08:40:55;99986.66;;;9.92;73.16
55373;BME280;70018;47.838;16.490;2024-02-15T08:43:22;99981.22;;;10.16;73.42
55373;BME280;70018;47.838;16.490;2024-02-15T08:45:49;99981.88;;;10.38;73.14
55373;BME280;70018;47.838;16.490;2024-02-15T08:48:17;99983.44;;;10.63;73.06
55373;BME280;70018;47.838;16.490;2024-02-15T08:50:44;99986.53;;;11.01;72.29
55373;BME280;70018;47.838;16.490;2024-02-15T08:53:12;99984.44;;;11.53;71.54
55373;BME280;70018;47.838;16.490;2024-02-15T08:55:41;99981.91;;;11.76;70.57
55373;BME280;70018;47.838;16.490;2024-02-15T08:58:08;99992.56;;;11.78;70.77
55373;BME280;70018;47.838;16.490;2024-02-15T09:00:36;99990.91;;;11.89;70.28
55373;BME280;70018;47.838;16.490;2024-02-15T09:03:04;99992.47;;;12.05;70.20
55373;BME280;70018;47.838;16.490;2024-02-15T09:05:33;99998.44;;;12.23;69.45
55373;BME280;70018;47.838;16.490;2024-02-15T09:08:00;100006.16;;;12.33;69.67
55373;BME280;70018;47.838;16.490;2024-02-15T09:10:27;99999.66;;;12.41;68.52
55373;BME280;70018;47.838;16.490;2024-02-15T09:12:54;99996.22;;;12.63;68.78
55373;BME280;70018;47.838;16.490;2024-02-15T09:15:21;99993.03;;;12.80;68.92
55373;BME280;70018;47.838;16.490;2024-02-15T09:17:49;99988.16;;;12.93;68.44
55373;BME280;70018;47.838;16.490;2024-02-15T09:20:16;99984.69;;;12.96;68.29
55373;BME280;70018;47.838;16.490;2024-02-15T09:22:52;99985.16;;;12.82;68.09
55373;BME280;70018;47.838;16.490;2024-02-15T09:25:22;99996.66;;;12.65;68.50
55373;BME280;70018;47.838;16.490;2024-02-15T09:27:52;99994.16;;;12.10;68.47
55373;BME280;70018;47.838;16.490;2024-02-15T09:30:20;99980.56;;;11.70;69.04
55373;BME280;70018;47.838;16.490;2024-02-15T09:32:47;99984.47;;;11.69;69.28
55373;BME280;70018;47.838;16.490;2024-02-15T09:35:14;99987.66;;;11.87;68.39
55373;BME280;70018;47.838;16.490;2024-02-15T09:37:46;99989.91;;;12.47;68.40
55373;BME280;70018;47.838;16.490;2024-02-15T09:40:16;99986.03;;;12.86;67.02
55373;BME280;70018;47.838;16.490;2024-02-15T09:42:45;99991.09;;;13.38;65.91
55373;BME280;70018;47.838;16.490;2024-02-15T09:45:13;99996.25;;;13.40;65.26
55373;BME280;70018;47.838;16.490;2024-02-15T09:47:42;99997.41;;;13.01;65.09
55373;BME280;70018;47.838;16.490;2024-02-15T09:50:14;99984.00;;;13.03;65.56
55373;BME280;70018;47.838;16.490;2024-02-15T09:52:51;99988.69;;;12.99;65.03
55373;BME280;70018;47.838;16.490;2024-02-15T09:55:18;99982.34;;;13.17;65.28
55373;BME280;70018;47.838;16.490;2024-02-15T09:57:46;99984.88;;;13.45;64.53
55373;BME280;70018;47.838;16.490;2024-02-15T10:00:14;99981.38;;;13.48;64.01
55373;BME280;70018;47.838;16.490;2024-02-15T10:02:44;99983.16;;;13.60;64.27
55373;BME280;70018;47.838;16.490;2024-02-15T10:05:12;99973.91;;;13.29;64.18
55373;BME280;70018;47.838;16.490;2024-02-15T10:07:42;99977.59;;;13.37;64.27
55373;BME280;70018;47.838;16.490;2024-02-15T10:10:17;99972.78;;;13.53;64.20
55373;BME280;70018;47.838;16.490;2024-02-15T10:12:47;99975.25;;;13.58;63.20
55373;BME280;70018;47.838;16.490;2024-02-15T10:15:36;99962.22;;;14.07;62.69
55373;BME280;70018;47.838;16.490;2024-02-15T10:18:05;99966.59;;;14.61;61.46
55373;BME280;70018;47.838;16.490;2024-02-15T10:20:34;99960.06;;;14.76;60.91
55373;BME280;70018;47.838;16.490;2024-02-15T10:25:36;99957.78;;;14.81;60.42
55373;BME280;70018;47.838;16.490;2024-02-15T10:30:35;99955.75;;;14.78;60.13
55373;BME280;70018;47.838;16.490;2024-02-15T10:33:03;99952.00;;;14.64;60.62
55373;BME280;70018;47.838;16.490;2024-02-15T10:35:31;99951.41;;;14.48;60.43
55373;BME280;70018;47.838;16.490;2024-02-15T10:38:09;99946.13;;;14.39;60.56
55373;BME280;70018;47.838;16.490;2024-02-15T10:40:37;99948.34;;;13.81;61.09
55373;BME280;70018;47.838;16.490;2024-02-15T10:43:05;99944.91;;;13.88;61.56
55373;BME280;70018;47.838;16.490;2024-02-15T10:45:34;99945.44;;;13.97;61.07
55373;BME280;70018;47.838;16.490;2024-02-15T10:48:01;99938.97;;;13.89;61.25
55373;BME280;70018;47.838;16.490;2024-02-15T10:50:28;99947.19;;;13.60;60.81
55373;BME280;70018;47.838;16.490;2024-02-15T10:52:56;99941.44;;;13.49;60.77
55373;BME280;70018;47.838;16.490;2024-02-15T10:58:06;99942.47;;;13.60;60.63
55373;BME280;70018;47.838;16.490;2024-02-15T11:00:33;99940.72;;;13.52;60.03
55373;BME280;70018;47.838;16.490;2024-02-15T11:03:04;99927.91;;;13.44;60.41
55373;BME280;70018;47.838;16.490;2024-02-15T11:05:33;99934.75;;;13.73;60.37
55373;BME280;70018;47.838;16.490;2024-02-15T11:08:06;99929.63;;;13.97;60.07
55373;BME280;70018;47.838;16.490;2024-02-15T11:10:34;99926.69;;;13.87;59.97
55373;BME280;70018;47.838;16.490;2024-02-15T11:13:02;99926.03;;;13.48;60.46
55373;BME280;70018;47.838;16.490;2024-02-15T11:15:47;99928.69;;;13.41;60.31
55373;BME280;70018;47.838;16.490;2024-02-15T11:18:45;99930.97;;;13.58;59.34
55373;BME280;70018;47.838;16.490;2024-02-15T11:21:15;99932.50;;;13.78;59.17
55373;BME280;70018;47.838;16.490;2024-02-15T11:23:44;99919.31;;;14.20;59.21
55373;BME280;70018;47.838;16.490;2024-02-15T11:26:43;99911.03;;;14.24;58.37
55373;BME280;70018;47.838;16.490;2024-02-15T11:29:47;99913.94;;;14.61;58.00
55373;BME280;70018;47.838;16.490;2024-02-15T11:32:42;99910.75;;;14.59;57.19
55373;BME280;70018;47.838;16.490;2024-02-15T11:35:22;99919.44;;;14.57;58.00
55373;BME280;70018;47.838;16.490;2024-02-15T11:37:51;99915.16;;;14.63;57.66
55373;BME280;70018;47.838;16.490;2024-02-15T11:40:23;99911.09;;;14.87;57.18
55373;BME280;70018;47.838;16.490;2024-02-15T11:42:54;99909.59;;;14.60;56.87
55373;BME280;70018;47.838;16.490;2024-02-15T11:45:21;99900.31;;;14.49;57.62
55373;BME280;70018;47.838;16.490;2024-02-15T11:47:50;99903.28;;;14.33;57.24
55373;BME280;70018;47.838;16.490;2024-02-15T11:50:18;99902.88;;;14.08;57.65
55373;BME280;70018;47.838;16.490;2024-02-15T11:52:47;99896.94;;;13.80;57.97
55373;BME280;70018;47.838;16.490;2024-02-15T11:55:19;99895.09;;;13.65;58.56
55373;BME280;70018;47.838;16.490;2024-02-15T11:57:59;99893.25;;;13.73;58.16
55373;BME280;70018;47.838;16.490;2024-02-15T12:00:36;99896.13;;;13.80;57.81
55373;BME280;70018;47.838;16.490;2024-02-15T12:03:23;99892.03;;;13.96;57.91
55373;BME280;70018;47.838;16.490;2024-02-15T12:06:27;99893.53;;;14.43;56.84
55373;BME280;70018;47.838;16.490;2024-02-15T12:09:12;99889.84;;;14.98;55.85
55373;BME280;70018;47.838;16.490;2024-02-15T12:11:58;99886.91;;;15.21;55.45
55373;BME280;70018;47.838;16.490;2024-02-15T12:14:43;99886.72;;;15.43;54.80
55373;BME280;70018;47.838;16.490;2024-02-15T12:17:29;99882.25;;;15.32;54.86
55373;BME280;70018;47.838;16.490;2024-02-15T12:20:14;99882.91;;;15.59;54.55
55373;BME280;70018;47.838;16.490;2024-02-15T12:22:47;99877.00;;;15.60;54.14
55373;BME280;70018;47.838;16.490;2024-02-15T12:25:15;99882.03;;;15.48;54.38
55373;BME280;70018;47.838;16.490;2024-02-15T12:27:52;99879.19;;;15.40;54.48
55373;BME280;70018;47.838;16.490;2024-02-15T12:30:19;99878.22;;;15.22;54.14
55373;BME280;70018;47.838;16.490;2024-02-15T12:32:52;99873.94;;;15.32;54.46
55373;BME280;70018;47.838;16.490;2024-02-15T12:35:21;99867.88;;;15.19;54.42
55373;BME280;70018;47.838;16.490;2024-02-15T12:38:03;99869.06;;;15.22;53.98
55373;BME280;70018;47.838;16.490;2024-02-15T12:40:33;99853.88;;;15.09;54.23
55373;BME280;70018;47.838;16.490;2024-02-15T12:43:00;99852.53;;;14.92;53.92
55373;BME280;70018;47.838;16.490;2024-02-15T12:45:28;99848.94;;;14.88;54.48
55373;BME280;70018;47.838;16.490;2024-02-15T12:47:56;99849.16;;;14.76;54.75
55373;BME280;70018;47.838;16.490;2024-02-15T12:50:28;99840.28;;;14.93;54.60
55373;BME280;70018;47.838;16.490;2024-02-15T12:52:55;99837.66;;;15.11;54.15
55373;BME280;70018;47.838;16.490;2024-02-15T12:55:33;99843.59;;;15.09;54.25
55373;BME280;70018;47.838;16.490;2024-02-15T12:58:04;99836.81;;;15.07;54.06
55373;BME280;70018;47.838;16.490;2024-02-15T13:00:36;99831.31;;;15.10;54.38
55373;BME280;70018;47.838;16.490;2024-02-15T13:03:07;99823.41;;;15.12;54.48
55373;BME280;70018;47.838;16.490;2024-02-15T13:05:38;99824.94;;;15.06;54.11
55373;BME280;70018;47.838;16.490;2024-02-15T13:08:06;99819.09;;;15.18;54.34
55373;BME280;70018;47.838;16.490;2024-02-15T13:10:37;99815.16;;;15.19;54.57
55373;BME280;70018;47.838;16.490;2024-02-15T13:13:06;99824.97;;;15.10;53.80
55373;BME280;70018;47.838;16.490;2024-02-15T13:15:33;99815.22;;;14.86;53.84
55373;BME280;70018;47.838;16.490;2024-02-15T13:18:01;99811.38;;;14.98;54.28
55373;BME280;70018;47.838;16.490;2024-02-15T13:20:32;99809.75;;;14.93;54.69
55373;BME280;70018;47.838;16.490;2024-02-15T13:23:10;99810.88;;;14.85;54.75
55373;BME280;70018;47.838;16.490;2024-02-15T13:25:49;99810.34;;;14.76;54.41
55373;BME280;70018;47.838;16.490;2024-02-15T13:28:16;99805.25;;;14.78;53.85
55373;BME280;70018;47.838;16.490;2024-02-15T13:30:43;99811.47;;;14.68;53.78
55373;BME280;70018;47.838;16.490;2024-02-15T13:33:12;99809.78;;;14.60;54.09
55373;BME280;70018;47.838;16.490;2024-02-15T13:35:40;99789.25;;;14.64;54.06
55373;BME280;70018;47.838;16.490;2024-02-15T13:38:08;99790.38;;;14.60;53.98
55373;BME280;70018;47.838;16.490;2024-02-15T13:40:42;99790.31;;;14.53;54.04
55373;BME280;70018;47.838;16.490;2024-02-15T13:43:08;99792.56;;;14.44;54.19
55373;BME280;70018;47.838;16.490;2024-02-15T13:45:42;99797.28;;;14.40;54.07
55373;BME280;70018;47.838;16.490;2024-02-15T13:48:11;99791.31;;;14.38;54.12
55373;BME280;70018;47.838;16.490;2024-02-15T13:50:41;99796.13;;;14.41;54.07
55373;BME280;70018;47.838;16.490;2024-02-15T13:53:09;99787.38;;;14.39;54.09
55373;BME280;70018;47.838;16.490;2024-02-15T13:55:37;99788.88;;;14.33;54.43
55373;BME280;70018;47.838;16.490;2024-02-15T13:58:03;99798.31;;;14.28;53.90
55373;BME280;70018;47.838;16.490;2024-02-15T14:00:30;99782.03;;;14.23;53.88
55373;BME280;70018;47.838;16.490;2024-02-15T14:03:01;99794.66;;;14.20;53.70
55373;BME280;70018;47.838;16.490;2024-02-15T14:05:29;99789.44;;;14.15;53.48
55373;BME280;70018;47.838;16.490;2024-02-15T14:07:57;99782.63;;;14.09;53.79
55373;BME280;70018;47.838;16.490;2024-02-15T14:10:25;99788.16;;;14.09;53.79
55373;BME280;70018;47.838;16.490;2024-02-15T14:12:54;99779.91;;;14.13;53.60
55373;BME280;70018;47.838;16.490;2024-02-15T14:15:30;99783.13;;;14.18;53.69
55373;BME280;70018;47.838;16.490;2024-02-15T14:18:00;99788.25;;;14.16;53.23
55373;BME280;70018;47.838;16.490;2024-02-15T14:20:28;99779.84;;;14.09;53.19
55373;BME280;70018;47.838;16.490;2024-02-15T14:22:55;99785.72;;;14.04;53.16
55373;BME280;70018;47.838;16.490;2024-02-15T14:25:25;99777.50;;;14.11;53.43
55373;BME280;70018;47.838;16.490;2024-02-15T14:27:55;99773.47;;;14.05;53.52
55373;BME280;70018;47.838;16.490;2024-02-15T14:30:24;99774.56;;;13.97;53.16
55373;BME280;70018;47.838;16.490;2024-02-15T14:33:10;99772.50;;;13.91;53.22
55373;BME280;70018;47.838;16.490;2024-02-15T14:35:46;99783.56;;;13.91;53.28
55373;BME280;70018;47.838;16.490;2024-02-15T14:38:13;99767.28;;;13.86;52.96
55373;BME280;70018;47.838;16.490;2024-02-15T14:40:43;99777.66;;;13.92;52.44
55373;BME280;70018;47.838;16.490;2024-02-15T14:43:17;99781.91;;;13.86;52.55
55373;BME280;70018;47.838;16.490;2024-02-15T14:45:47;99790.09;;;13.76;52.66